createdAt,value
2019-05-06T00:01:53.988Z,13.60
2019-05-06T00:04:24.734Z,11.27
2019-05-06T00:06:54.814Z,7.80
2019-05-06T00:09:24.486Z,11.13
2019-05-06T00:11:54.689Z,8.37
2019-05-06T00:14:23.790Z,10.73
2019-05-06T00:16:55.121Z,8.03
2019-05-06T00:19:28.853Z,8.20
2019-05-06T00:21:57.870Z,8.83
2019-05-06T00:24:31.077Z,9.47
2019-05-06T00:27:24.729Z,5.93
2019-05-06T00:29:56.142Z,9.00
2019-05-06T00:32:25.457Z,9.73
2019-05-06T00:34:56.052Z,7.73
2019-05-06T00:37:26.553Z,8.47
2019-05-06T00:40:09.297Z,9.27
2019-05-06T00:42:44.502Z,9.03
2019-05-06T00:45:13.676Z,8.53
2019-05-06T00:47:44.408Z,11.53
2019-05-06T00:50:15.191Z,13.10
2019-05-06T00:52:47.525Z,10.73
2019-05-06T00:55:16.596Z,11.30
2019-05-06T00:57:50.850Z,9.63
2019-05-06T01:00:25.123Z,9.00
2019-05-06T01:02:54.458Z,12.03
2019-05-06T01:05:24.436Z,8.73
2019-05-06T01:07:54.938Z,9.53
2019-05-06T01:10:24.782Z,12.37
2019-05-06T01:13:08.393Z,8.20
2019-05-06T01:15:38.534Z,11.90
2019-05-06T01:18:07.537Z,9.53
2019-05-06T01:20:36.578Z,8.83
2019-05-06T01:23:05.624Z,10.43
2019-05-06T01:25:34.820Z,9.63
2019-05-06T01:28:04.523Z,11.07
2019-05-06T01:30:35.004Z,11.10
2019-05-06T01:33:06.730Z,9.60
2019-05-06T01:35:37.896Z,12.50
2019-05-06T01:38:30.204Z,12.70
2019-05-06T01:41:24.254Z,8.83
2019-05-06T01:43:52.217Z,8.97
2019-05-06T01:46:24.205Z,13.33
2019-05-06T01:48:54.770Z,9.37
2019-05-06T01:51:26.229Z,9.93
2019-05-06T01:53:55.628Z,13.20
2019-05-06T01:56:24.724Z,11.93
2019-05-06T01:58:54.514Z,14.40
2019-05-06T02:01:25.353Z,14.83
2019-05-06T02:03:54.553Z,17.77
2019-05-06T02:06:24.937Z,11.87
2019-05-06T02:08:54.181Z,10.07
2019-05-06T02:11:24.125Z,15.37
2019-05-06T02:13:54.135Z,13.77
2019-05-06T02:16:25.453Z,12.20
2019-05-06T02:18:56.862Z,12.37
2019-05-06T02:21:43.939Z,14.77
2019-05-06T02:24:18.808Z,12.00
2019-05-06T02:26:49.641Z,11.97
2019-05-06T02:29:21.023Z,15.47
2019-05-06T02:32:20.832Z,10.87
2019-05-06T02:34:48.178Z,16.23
2019-05-06T02:37:25.423Z,14.50
2019-05-06T02:39:53.818Z,13.17
2019-05-06T02:42:23.956Z,15.13
2019-05-06T02:44:54.355Z,21.47
2019-05-06T02:47:53.763Z,17.83
2019-05-06T02:50:28.973Z,18.00
2019-05-06T02:52:58.025Z,19.73
2019-05-06T02:55:27.427Z,15.43
2019-05-06T02:57:56.856Z,20.63
2019-05-06T03:00:26.277Z,17.57
2019-05-06T03:02:55.288Z,15.37
2019-05-06T03:05:24.388Z,18.43
2019-05-06T03:07:57.019Z,17.30
2019-05-06T03:10:27.673Z,17.33
2019-05-06T03:12:57.173Z,15.27
2019-05-06T03:15:26.225Z,17.60
2019-05-06T03:17:55.622Z,17.73
2019-05-06T03:20:43.764Z,14.07
2019-05-06T03:23:14.215Z,14.10
2019-05-06T03:25:45.474Z,16.67
2019-05-06T03:28:14.564Z,17.17
2019-05-06T03:30:45.831Z,17.03
2019-05-06T03:33:50.479Z,17.30
2019-05-06T03:36:04.651Z,18.97
2019-05-06T03:38:18.928Z,16.00
2019-05-06T03:40:47.936Z,17.60
2019-05-06T03:43:16.959Z,13.23
2019-05-06T03:46:13.983Z,15.53
2019-05-06T03:48:46.678Z,15.17
2019-05-06T03:51:15.680Z,16.70
2019-05-06T03:53:48.057Z,17.67
2019-05-06T03:56:20.063Z,16.03
2019-05-06T03:58:53.335Z,14.40
2019-05-06T04:01:24.114Z,15.70
2019-05-06T04:03:57.013Z,17.77
2019-05-06T04:06:24.281Z,15.13
2019-05-06T04:08:54.335Z,22.33
2019-05-06T04:11:24.800Z,16.17
2019-05-06T04:13:54.962Z,19.47
2019-05-06T04:16:34.986Z,18.87
2019-05-06T04:19:13.080Z,13.23
2019-05-06T04:21:48.978Z,13.43
2019-05-06T04:24:49.158Z,17.83
2019-05-06T04:27:37.610Z,19.63
2019-05-06T04:30:06.961Z,14.20
2019-05-06T04:32:35.975Z,16.60
2019-05-06T04:35:06.825Z,15.23
2019-05-06T04:37:36.552Z,15.23
2019-05-06T04:40:05.689Z,14.13
2019-05-06T04:42:34.918Z,13.17
2019-05-06T04:45:04.910Z,18.47
2019-05-06T04:47:38.972Z,18.20
2019-05-06T04:50:09.176Z,23.17
2019-05-06T04:52:38.280Z,14.43
2019-05-06T04:55:13.734Z,17.20
2019-05-06T04:57:43.941Z,15.30
2019-05-06T05:00:13.155Z,22.10
2019-05-06T05:02:46.113Z,13.37
2019-05-06T05:05:14.119Z,18.50
2019-05-06T05:07:43.725Z,19.87
2019-05-06T05:10:23.308Z,21.63
2019-05-06T05:13:04.250Z,15.73
2019-05-06T05:15:46.095Z,14.87
2019-05-06T05:18:19.746Z,16.03
2019-05-06T05:20:52.792Z,18.17
2019-05-06T05:23:24.713Z,20.50
2019-05-06T05:25:53.718Z,20.87
2019-05-06T05:28:22.859Z,18.87
2019-05-06T05:30:52.253Z,16.50
2019-05-06T05:33:24.803Z,16.83
2019-05-06T05:35:53.874Z,17.87
2019-05-06T05:38:23.224Z,20.33
2019-05-06T05:40:52.638Z,16.47
2019-05-06T05:43:32.528Z,11.97
2019-05-06T05:46:02.930Z,12.80
2019-05-06T05:48:52.008Z,19.00
2019-05-06T05:51:22.248Z,19.43
2019-05-06T05:53:52.267Z,15.37
2019-05-06T05:56:24.010Z,15.43
2019-05-06T05:58:53.649Z,22.30
2019-05-06T06:01:23.484Z,14.10
2019-05-06T06:03:52.884Z,17.20
2019-05-06T06:06:23.195Z,16.20
2019-05-06T06:08:53.542Z,14.70
2019-05-06T06:11:27.545Z,14.63
2019-05-06T06:14:03.492Z,14.60
2019-05-06T06:16:49.659Z,14.13
2019-05-06T06:19:32.766Z,17.53
2019-05-06T06:22:04.510Z,14.20
2019-05-06T06:24:35.416Z,11.40
2019-05-06T06:27:04.791Z,11.93
2019-05-06T06:29:34.441Z,16.17
2019-05-06T06:32:22.948Z,18.73
2019-05-06T06:35:22.858Z,15.97
2019-05-06T06:38:02.634Z,14.53
2019-05-06T06:40:32.994Z,11.70
2019-05-06T06:43:12.413Z,15.57
2019-05-06T06:45:42.240Z,14.93
2019-05-06T06:48:13.775Z,12.77
2019-05-06T06:50:43.012Z,16.17
2019-05-06T06:53:12.549Z,9.07
2019-05-06T06:55:42.801Z,13.40
2019-05-06T06:58:27.070Z,13.53
2019-05-06T07:01:14.066Z,15.17
2019-05-06T07:04:10.406Z,13.20
2019-05-06T07:06:43.564Z,14.83
2019-05-06T07:09:12.651Z,14.03
2019-05-06T07:11:42.797Z,14.83
2019-05-06T07:14:13.791Z,10.83
2019-05-06T07:16:43.141Z,14.00
2019-05-06T07:19:14.247Z,18.30
2019-05-06T07:21:53.637Z,14.47
2019-05-06T07:24:23.127Z,12.47
2019-05-06T07:26:56.483Z,19.87
2019-05-06T07:29:26.936Z,13.37
2019-05-06T07:31:58.071Z,13.10
2019-05-06T07:34:27.443Z,16.60
2019-05-06T07:36:56.969Z,14.53
2019-05-06T07:39:26.054Z,12.40
2019-05-06T07:41:57.794Z,13.30
2019-05-06T07:44:52.928Z,15.17
2019-05-06T07:47:39.355Z,12.57
2019-05-06T07:50:08.588Z,11.90
2019-05-06T07:52:37.914Z,21.00
2019-05-06T07:55:08.787Z,13.43
2019-05-06T07:57:42.404Z,15.73
2019-05-06T08:00:12.527Z,15.70
2019-05-06T08:02:42.617Z,13.97
2019-05-06T08:05:13.032Z,14.50
2019-05-06T08:07:42.393Z,17.27
2019-05-06T08:10:13.570Z,12.97
2019-05-06T08:12:42.993Z,16.53
2019-05-06T08:15:12.703Z,14.93
2019-05-06T08:17:42.556Z,20.10
2019-05-06T08:20:13.082Z,17.63
2019-05-06T08:22:49.724Z,13.27
2019-05-06T08:25:19.079Z,14.33
2019-05-06T08:27:49.570Z,13.87
2019-05-06T08:30:19.992Z,15.47
2019-05-06T08:32:49.008Z,15.77
2019-05-06T08:35:20.123Z,16.60
2019-05-06T08:37:50.331Z,17.47
2019-05-06T08:40:20.174Z,17.97
2019-05-06T08:42:49.281Z,15.37
2019-05-06T08:45:18.329Z,13.80
2019-05-06T08:47:47.705Z,11.10
2019-05-06T08:50:36.046Z,15.13
2019-05-06T08:53:16.457Z,13.80
2019-05-06T08:55:46.439Z,14.90
2019-05-06T08:58:15.472Z,13.17
2019-05-06T09:00:50.117Z,16.97
2019-05-06T09:03:19.191Z,14.47
2019-05-06T09:05:54.161Z,11.13
2019-05-06T09:08:24.795Z,12.20
2019-05-06T09:10:54.792Z,14.03
2019-05-06T09:13:24.161Z,16.87
2019-05-06T09:15:53.418Z,13.43
2019-05-06T09:18:24.083Z,16.93
2019-05-06T09:20:54.425Z,11.43
2019-05-06T09:23:25.758Z,12.93
2019-05-06T09:25:54.720Z,15.37
2019-05-06T09:28:42.725Z,16.23
2019-05-06T09:31:24.689Z,10.67
2019-05-06T09:33:58.893Z,10.63
2019-05-06T09:36:41.142Z,12.07
2019-05-06T09:38:59.310Z,12.43
2019-05-06T09:41:28.869Z,15.70
2019-05-06T09:43:58.014Z,15.97
2019-05-06T09:46:28.329Z,8.60
2019-05-06T09:49:12.788Z,9.83
2019-05-06T09:51:42.542Z,12.10
2019-05-06T09:54:24.647Z,8.57
2019-05-06T09:57:06.263Z,13.23
2019-05-06T09:59:35.737Z,9.80
2019-05-06T10:02:05.550Z,13.13
2019-05-06T10:04:34.614Z,8.93
2019-05-06T10:07:05.949Z,14.70
2019-05-06T10:09:35.648Z,13.70
2019-05-06T10:12:07.858Z,10.30
2019-05-06T10:14:37.287Z,12.47
2019-05-06T10:17:06.852Z,13.13
2019-05-06T10:19:35.927Z,9.93
2019-05-06T10:22:06.169Z,12.83
2019-05-06T10:24:35.483Z,12.17
2019-05-06T10:27:04.916Z,9.57
2019-05-06T10:29:39.511Z,10.70
2019-05-06T10:32:14.734Z,12.03
2019-05-06T10:34:45.944Z,12.33
2019-05-06T10:37:30.151Z,11.53
2019-05-06T10:40:19.373Z,11.47
2019-05-06T10:42:56.727Z,9.23
2019-05-06T10:45:32.372Z,9.20
2019-05-06T10:48:02.461Z,13.30
2019-05-06T10:50:35.600Z,10.40
2019-05-06T10:53:19.546Z,10.00
2019-05-06T10:55:54.727Z,8.97
2019-05-06T10:58:23.757Z,8.07
2019-05-06T11:01:23.155Z,8.40
2019-05-06T11:03:52.742Z,11.43
2019-05-06T11:06:22.201Z,7.57
2019-05-06T11:08:52.562Z,7.70
2019-05-06T11:11:32.723Z,8.27
2019-05-06T11:13:52.556Z,10.37
2019-05-06T11:16:23.680Z,16.50
2019-05-06T11:18:53.946Z,8.67
2019-05-06T11:21:23.013Z,12.00
2019-05-06T11:23:52.793Z,12.83
2019-05-06T11:26:23.689Z,6.90
2019-05-06T11:28:56.290Z,8.73
2019-05-06T11:31:56.595Z,9.10
2019-05-06T11:34:44.980Z,10.27
2019-05-06T11:37:45.369Z,8.33
2019-05-06T11:40:02.748Z,10.90
2019-05-06T11:42:35.803Z,9.27
2019-05-06T11:45:04.934Z,6.13
2019-05-06T11:47:35.514Z,5.10
2019-05-06T11:50:07.646Z,6.73
2019-05-06T11:52:36.739Z,7.13
2019-05-06T11:55:06.463Z,4.77
2019-05-06T11:57:38.059Z,5.27
2019-05-06T12:00:12.519Z,6.73
2019-05-06T12:02:44.521Z,9.30
2019-05-06T12:05:12.352Z,8.07
2019-05-06T12:07:44.907Z,7.97
2019-05-06T12:10:13.041Z,7.80
2019-05-06T12:12:42.647Z,8.60
2019-05-06T12:15:12.714Z,7.93
2019-05-06T12:17:44.351Z,9.90
2019-05-06T12:20:13.746Z,9.23
2019-05-06T12:22:44.001Z,10.07
2019-05-06T12:25:15.410Z,8.80
2019-05-06T12:27:44.671Z,10.90
2019-05-06T12:30:15.733Z,11.37
2019-05-06T12:33:04.454Z,13.20
2019-05-06T12:35:35.660Z,13.23
2019-05-06T12:38:24.916Z,11.03
2019-05-06T12:40:42.740Z,12.13
2019-05-06T12:43:30.440Z,12.90
2019-05-06T12:46:13.511Z,16.47
2019-05-06T12:48:44.124Z,11.97
2019-05-06T12:51:13.333Z,11.30
2019-05-06T12:53:42.929Z,9.80
2019-05-06T12:56:12.477Z,10.43
2019-05-06T12:58:44.005Z,9.53
2019-05-06T13:01:15.356Z,10.23
2019-05-06T13:03:45.997Z,9.50
2019-05-06T13:06:15.390Z,11.03
2019-05-06T13:08:56.529Z,8.10
2019-05-06T13:11:15.234Z,9.07
2019-05-06T13:13:56.431Z,11.03
2019-05-06T13:16:15.726Z,8.77
2019-05-06T13:18:48.506Z,10.43
2019-05-06T13:21:17.266Z,8.80
2019-05-06T13:23:50.264Z,9.27
2019-05-06T13:26:22.116Z,9.20
2019-05-06T13:28:54.936Z,12.50
2019-05-06T13:31:25.495Z,9.30
2019-05-06T13:33:57.678Z,11.57
2019-05-06T13:36:27.095Z,9.33
2019-05-06T13:39:13.502Z,10.23
2019-05-06T13:41:32.703Z,14.47
2019-05-06T13:44:17.431Z,10.93
2019-05-06T13:46:55.782Z,9.73
2019-05-06T13:49:52.052Z,10.73
2019-05-06T13:52:24.268Z,10.27
2019-05-06T13:54:53.396Z,11.20
2019-05-06T13:57:22.527Z,9.30
2019-05-06T13:59:53.681Z,11.87
2019-05-06T14:02:45.816Z,8.50
2019-05-06T14:05:15.522Z,8.03
2019-05-06T14:07:45.144Z,9.07
2019-05-06T14:10:15.915Z,10.40
2019-05-06T14:12:44.993Z,11.40
2019-05-06T14:15:14.922Z,7.57
2019-05-06T14:17:44.015Z,11.27
2019-05-06T14:20:14.043Z,11.53
2019-05-06T14:22:43.988Z,8.77
2019-05-06T14:25:33.192Z,7.83
2019-05-06T14:28:19.739Z,8.40
2019-05-06T14:31:04.220Z,10.73
2019-05-06T14:33:34.612Z,10.73
2019-05-06T14:36:05.526Z,8.27
2019-05-06T14:38:37.666Z,7.63
2019-05-06T14:41:25.922Z,9.10
2019-05-06T14:43:51.629Z,10.13
2019-05-06T14:46:22.871Z,9.47
2019-05-06T14:48:53.623Z,6.80
2019-05-06T14:51:22.620Z,9.37
2019-05-06T14:53:52.975Z,9.20
2019-05-06T14:56:35.624Z,7.17
2019-05-06T14:59:07.885Z,11.40
2019-05-06T15:01:38.872Z,10.07
2019-05-06T15:04:08.334Z,5.67
2019-05-06T15:06:37.336Z,7.20
2019-05-06T15:09:13.406Z,9.00
2019-05-06T15:11:43.388Z,6.10
2019-05-06T15:14:14.921Z,7.93
2019-05-06T15:16:43.953Z,6.87
2019-05-06T15:19:13.083Z,6.00
2019-05-06T15:21:42.797Z,7.80
2019-05-06T15:24:14.260Z,7.73
2019-05-06T15:26:44.302Z,6.43
2019-05-06T15:29:15.342Z,7.13
2019-05-06T15:32:02.364Z,5.23
2019-05-06T15:34:53.113Z,7.97
2019-05-06T15:37:26.993Z,6.53
2019-05-06T15:39:56.457Z,4.70
2019-05-06T15:42:28.495Z,6.80
2019-05-06T15:44:57.678Z,5.30
2019-05-06T15:47:27.335Z,7.03
2019-05-06T15:49:56.553Z,6.60
2019-05-06T15:52:25.889Z,5.97
2019-05-06T15:54:58.447Z,4.60
2019-05-06T15:57:27.535Z,5.63
2019-05-06T16:00:02.370Z,5.93
2019-05-06T16:02:34.308Z,7.30
2019-05-06T16:05:13.903Z,9.00
2019-05-06T16:07:39.075Z,4.60
2019-05-06T16:10:09.238Z,5.20
2019-05-06T16:12:38.401Z,5.10
2019-05-06T16:15:08.639Z,5.00
2019-05-06T16:17:37.681Z,8.63
2019-05-06T16:20:07.771Z,6.47
2019-05-06T16:22:37.396Z,7.13
2019-05-06T16:25:10.101Z,8.73
2019-05-06T16:27:43.834Z,6.00
2019-05-06T16:30:13.252Z,6.30
2019-05-06T16:32:42.739Z,5.60
2019-05-06T16:35:14.302Z,7.47
2019-05-06T16:37:43.157Z,4.57
2019-05-06T16:40:12.499Z,6.43
2019-05-06T16:42:45.781Z,7.60
2019-05-06T16:45:14.495Z,6.87
2019-05-06T16:47:44.844Z,6.30
2019-05-06T16:50:19.129Z,5.80
2019-05-06T16:52:48.548Z,7.97
2019-05-06T16:55:24.443Z,5.63
2019-05-06T16:58:02.374Z,8.57
2019-05-06T17:00:33.613Z,7.23
2019-05-06T17:03:11.704Z,8.27
2019-05-06T17:05:59.556Z,9.63
2019-05-06T17:08:28.909Z,5.37
2019-05-06T17:10:59.272Z,7.27
2019-05-06T17:13:28.303Z,11.07
2019-05-06T17:15:57.384Z,5.37
2019-05-06T17:18:26.813Z,8.17
2019-05-06T17:20:56.279Z,7.67
2019-05-06T17:23:26.437Z,7.43
2019-05-06T17:25:55.393Z,7.03
2019-05-06T17:28:43.776Z,5.47
2019-05-06T17:31:27.925Z,7.23
2019-05-06T17:33:59.523Z,6.40
2019-05-06T17:36:32.428Z,5.83
2019-05-06T17:39:02.670Z,7.33
2019-05-06T17:41:44.565Z,5.77
2019-05-06T17:44:04.418Z,9.40
2019-05-06T17:46:38.885Z,5.53
2019-05-06T17:49:15.095Z,5.40
2019-05-06T17:52:05.934Z,9.97
2019-05-06T17:54:35.317Z,7.47
2019-05-06T17:57:04.813Z,7.20
2019-05-06T17:59:37.291Z,8.00
2019-05-06T18:02:10.225Z,8.60
2019-05-06T18:04:39.545Z,8.03
2019-05-06T18:07:08.578Z,6.30
2019-05-06T18:09:37.843Z,6.80
2019-05-06T18:12:08.445Z,8.90
2019-05-06T18:14:37.803Z,5.77
2019-05-06T18:17:07.426Z,8.73
2019-05-06T18:19:38.664Z,6.73
2019-05-06T18:22:07.807Z,5.73
2019-05-06T18:24:36.834Z,7.83
2019-05-06T18:27:06.213Z,6.20
2019-05-06T18:29:35.243Z,8.40
2019-05-06T18:32:04.725Z,7.33
2019-05-06T18:34:36.928Z,7.37
2019-05-06T18:37:05.954Z,9.10
2019-05-06T18:39:35.089Z,7.77
2019-05-06T18:42:15.490Z,10.10
2019-05-06T18:44:38.287Z,9.60
2019-05-06T18:47:07.371Z,8.43
2019-05-06T18:49:36.484Z,7.73
2019-05-06T18:52:05.861Z,12.13
2019-05-06T18:54:35.515Z,8.43
2019-05-06T18:57:07.404Z,6.67
2019-05-06T18:59:38.000Z,8.70
2019-05-06T19:02:10.200Z,6.10
2019-05-06T19:04:49.312Z,8.53
2019-05-06T19:07:18.398Z,10.40
2019-05-06T19:09:52.641Z,5.40
2019-05-06T19:12:36.784Z,7.67
2019-05-06T19:15:03.134Z,7.00
2019-05-06T19:17:33.504Z,5.93
2019-05-06T19:20:02.735Z,6.97
2019-05-06T19:22:32.846Z,6.13
2019-05-06T19:25:06.125Z,11.57
2019-05-06T19:27:37.701Z,6.63
2019-05-06T19:30:08.167Z,7.00
2019-05-06T19:32:38.764Z,5.20
2019-05-06T19:35:08.776Z,7.37
2019-05-06T19:37:41.749Z,8.50
2019-05-06T19:40:12.136Z,10.27
2019-05-06T19:42:47.146Z,8.17
2019-05-06T19:45:13.006Z,8.43
2019-05-06T19:47:42.657Z,8.97
2019-05-06T19:50:11.785Z,8.13
2019-05-06T19:52:42.206Z,8.27
2019-05-06T19:55:14.521Z,7.17
2019-05-06T19:57:43.906Z,7.80
2019-05-06T20:00:16.093Z,8.33
2019-05-06T20:02:45.255Z,8.70
2019-05-06T20:05:23.987Z,8.67
2019-05-06T20:08:09.305Z,8.83
2019-05-06T20:10:56.599Z,9.63
2019-05-06T20:13:28.243Z,9.60
2019-05-06T20:15:57.008Z,8.27
2019-05-06T20:18:26.037Z,8.90
2019-05-06T20:20:55.055Z,11.23
2019-05-06T20:23:24.467Z,10.93
2019-05-06T20:25:56.499Z,10.23
2019-05-06T20:28:26.000Z,10.93
2019-05-06T20:30:55.113Z,12.37
2019-05-06T20:33:24.161Z,10.07
2019-05-06T20:35:53.867Z,11.93
2019-05-06T20:38:25.631Z,12.50
2019-05-06T20:40:54.951Z,13.17
2019-05-06T20:43:24.222Z,12.20
2019-05-06T20:45:53.360Z,12.20
2019-05-06T20:48:23.530Z,11.67
2019-05-06T20:50:52.853Z,13.77
2019-05-06T20:53:23.205Z,11.23
2019-05-06T20:55:53.188Z,12.20
2019-05-06T20:58:23.244Z,14.13
2019-05-06T21:00:55.743Z,11.83
2019-05-06T21:03:25.489Z,10.07
2019-05-06T21:05:54.629Z,10.73
2019-05-06T21:08:24.456Z,11.50
2019-05-06T21:10:53.889Z,14.93
2019-05-06T21:13:31.834Z,10.33
2019-05-06T21:18:29.072Z,16.27
2019-05-06T21:20:58.938Z,14.50
2019-05-06T21:23:33.268Z,11.60
2019-05-06T21:26:03.326Z,14.73
2019-05-06T21:28:32.714Z,12.80
2019-05-06T21:31:03.420Z,11.00
2019-05-06T21:33:32.997Z,9.63
2019-05-06T21:36:03.026Z,12.27
2019-05-06T21:38:35.103Z,10.70
2019-05-06T21:41:05.323Z,10.13
2019-05-06T21:43:46.383Z,11.07
2019-05-06T21:46:08.325Z,11.37
2019-05-06T21:48:37.933Z,15.23
2019-05-06T21:51:06.967Z,11.33
2019-05-06T21:53:36.340Z,12.67
2019-05-06T21:56:08.498Z,14.03
2019-05-06T21:58:37.547Z,16.47
2019-05-06T22:01:07.394Z,12.20
2019-05-06T22:03:38.661Z,12.33
2019-05-06T22:06:07.893Z,11.43
2019-05-06T22:08:37.502Z,11.97
2019-05-06T22:11:07.624Z,11.53
2019-05-06T22:13:38.814Z,11.70
2019-05-06T22:16:08.780Z,12.10
2019-05-06T22:18:38.580Z,13.37
2019-05-06T22:21:15.532Z,11.60
2019-05-06T22:23:58.673Z,14.03
2019-05-06T22:26:28.537Z,11.67
2019-05-06T22:29:02.047Z,11.27
2019-05-06T22:31:33.038Z,12.33
2019-05-06T22:34:02.321Z,10.73
2019-05-06T22:36:40.634Z,11.43
2019-05-06T22:39:06.783Z,14.97
2019-05-06T22:41:35.955Z,10.80
2019-05-06T22:44:13.303Z,13.07
2019-05-06T22:46:35.698Z,12.27
2019-05-06T22:49:05.006Z,9.67
2019-05-06T22:51:36.572Z,12.93
2019-05-06T22:54:06.442Z,11.10
2019-05-06T22:56:35.840Z,12.67
2019-05-06T22:59:04.950Z,12.63
2019-05-06T23:02:08.144Z,11.20
2019-05-06T23:04:38.058Z,12.63
2019-05-06T23:07:11.124Z,9.93
2019-05-06T23:09:42.555Z,12.97
2019-05-06T23:12:14.466Z,12.30
2019-05-06T23:14:43.596Z,10.47
2019-05-06T23:17:12.913Z,11.80
2019-05-06T23:19:42.962Z,11.53
2019-05-06T23:22:13.165Z,12.83
2019-05-06T23:24:42.522Z,12.67
2019-05-06T23:27:12.692Z,11.00
2019-05-06T23:29:45.007Z,13.07
2019-05-06T23:32:15.784Z,12.13
2019-05-06T23:34:47.282Z,12.97
2019-05-06T23:37:23.845Z,10.47
2019-05-06T23:40:33.156Z,10.60
2019-05-06T23:43:38.330Z,12.63
2019-05-06T23:46:43.186Z,11.03
2019-05-06T23:49:49.296Z,12.13
2019-05-06T23:52:54.242Z,12.53
2019-05-06T23:56:02.807Z,12.33
2019-05-06T23:58:32.293Z,15.50
